Time;durP1;ratioP1;P1;durP2;ratioP2;P2;SDS_P1;SDS_P2;PMS_P1;PMS_P2;Temp;Humidity;BMP_temperature;BMP_pressure;BME280_temperature;BME280_humidity;BME280_pressure;Samples;Min_cycle;Max_cycle;Signal;HPM_P1;HPM_P2
2021/10/27 00:00:25;;;;;;;2.80;2.08;;;17.80;66.70;;;;;;5073513;28;20630;-63
2021/10/27 00:02:50;;;;;;;2.65;2.10;;;17.80;66.70;;;;;;5073374;28;20240;-63
2021/10/27 00:05:16;;;;;;;2.45;2.13;;;17.80;66.70;;;;;;5072784;28;20258;-62
2021/10/27 00:07:42;;;;;;;2.22;1.88;;;17.80;66.70;;;;;;5073206;28;20174;-61
2021/10/27 00:10:07;;;;;;;2.70;2.45;;;17.80;66.70;;;;;;5073410;28;20637;-59
2021/10/27 00:12:33;;;;;;;2.42;2.22;;;17.80;66.80;;;;;;5072610;28;20220;-59
2021/10/27 00:14:59;;;;;;;2.50;2.03;;;17.80;66.70;;;;;;5073512;28;20264;-61
2021/10/27 00:17:24;;;;;;;2.58;2.03;;;17.80;66.70;;;;;;5073378;28;20179;-60
2021/10/27 00:19:50;;;;;;;2.55;2.35;;;17.70;66.70;;;;;;5072080;28;20272;-61
2021/10/27 00:22:15;;;;;;;3.00;2.20;;;17.70;66.70;;;;;;5073083;28;20170;-61
2021/10/27 00:24:41;;;;;;;2.78;2.20;;;17.70;66.60;;;;;;5072718;28;20661;-62
2021/10/27 00:27:07;;;;;;;4.60;2.58;;;17.70;66.70;;;;;;5072605;28;20170;-62
2021/10/27 00:29:34;;;;;;;2.90;2.17;;;17.70;66.70;;;;;;5072979;28;20249;-62
2021/10/27 00:31:59;;;;;;;3.72;2.05;;;17.70;66.70;;;;;;5073183;28;20183;-62
2021/10/27 00:34:25;;;;;;;2.45;2.13;;;17.70;66.70;;;;;;5072316;28;20266;-62
2021/10/27 00:36:50;;;;;;;2.65;2.10;;;17.70;66.70;;;;;;5072750;28;20643;-63
2021/10/27 00:39:16;;;;;;;2.58;1.80;;;17.70;66.80;;;;;;5072811;28;20194;-63
2021/10/27 00:41:43;;;;;;;2.58;2.03;;;17.70;66.70;;;;;;5072137;28;20186;-63
2021/10/27 00:44:19;;;;;;;2.28;2.08;;;17.70;66.70;;;;;;5072062;28;20233;-63
2021/10/27 00:46:45;;;;;;;2.33;1.98;;;17.70;66.70;;;;;;5072024;28;20185;-62
2021/10/27 00:49:11;;;;;;;2.10;1.90;;;17.70;66.70;;;;;;5072858;28;20166;-62
2021/10/27 00:51:36;;;;;;;2.38;2.17;;;17.70;66.80;;;;;;5072586;28;20197;-61
2021/10/27 00:54:02;;;;;;;4.10;2.63;;;17.70;66.70;;;;;;5072309;28;20171;-62
2021/10/27 00:56:28;;;;;;;1.95;1.85;;;17.70;66.70;;;;;;5071821;28;20174;-62
2021/10/27 00:58:53;;;;;;;2.20;2.00;;;17.70;66.80;;;;;;5071430;28;20182;-63
2021/10/27 01:01:19;;;;;;;2.47;1.88;;;17.70;66.80;;;;;;5070985;28;20182;-63
2021/10/27 01:03:44;;;;;;;1.98;1.77;;;17.70;66.80;;;;;;5072637;28;20169;-63
2021/10/27 01:06:10;;;;;;;2.25;2.15;;;17.70;66.80;;;;;;5072806;28;20644;-62
2021/10/27 01:08:36;;;;;;;2.38;2.00;;;17.70;66.80;;;;;;5071606;28;20178;-61
2021/10/27 01:11:02;;;;;;;3.53;2.08;;;17.60;66.70;;;;;;5072793;28;20213;-60
2021/10/27 01:13:27;;;;;;;2.88;1.90;;;17.70;66.90;;;;;;5054732;28;20183;-61
2021/10/27 01:15:53;;;;;;;3.08;2.47;;;17.60;66.80;;;;;;5071803;28;20194;-61
2021/10/27 01:18:18;;;;;;;2.40;2.17;;;17.70;66.80;;;;;;5072701;28;20166;-62
2021/10/27 01:20:44;;;;;;;2.40;2.20;;;17.60;66.80;;;;;;5072243;28;20210;-61
2021/10/27 01:23:09;;;;;;;2.20;2.10;;;17.60;66.80;;;;;;5071957;28;20632;-62
2021/10/27 01:25:35;;;;;;;2.08;1.85;;;17.60;66.80;;;;;;5072427;28;20244;-62
2021/10/27 01:28:00;;;;;;;2.17;1.60;;;17.60;66.90;;;;;;5072641;28;20573;-62
2021/10/27 01:30:26;;;;;;;2.22;2.03;;;17.60;66.80;;;;;;5071833;28;20205;-62
2021/10/27 01:32:51;;;;;;;2.45;2.25;;;17.60;66.80;;;;;;5072111;28;20257;-62
2021/10/27 01:35:17;;;;;;;2.08;1.80;;;17.60;66.80;;;;;;5072564;28;20228;-62
2021/10/27 01:37:42;;;;;;;2.83;2.50;;;17.60;66.80;;;;;;5071376;28;20232;-61
2021/10/27 01:40:10;;;;;;;2.55;2.35;;;17.60;66.80;;;;;;5072417;28;20218;-62
2021/10/27 01:42:36;;;;;;;2.70;2.20;;;17.60;66.90;;;;;;5072081;28;20198;-62
2021/10/27 01:45:02;;;;;;;3.65;2.38;;;17.70;67.00;;;;;;5071712;28;20618;-62
2021/10/27 01:47:28;;;;;;;2.50;2.30;;;17.60;66.90;;;;;;5072365;28;20179;-61
2021/10/27 01:49:53;;;;;;;2.55;1.80;;;17.60;66.90;;;;;;5071355;28;20196;-62
2021/10/27 01:52:19;;;;;;;3.75;2.20;;;17.60;66.90;;;;;;5072487;28;20614;-62
2021/10/27 01:54:44;;;;;;;2.00;1.83;;;17.60;66.90;;;;;;5072473;28;20176;-62
2021/10/27 01:57:11;;;;;;;2.17;1.98;;;17.60;66.90;;;;;;5075186;28;20529;-63
2021/10/27 01:59:36;;;;;;;3.28;2.53;;;17.60;66.90;;;;;;5075561;28;20214;-64
2021/10/27 02:02:02;;;;;;;2.95;2.38;;;17.60;66.90;;;;;;5075842;28;20193;-62
2021/10/27 02:04:27;;;;;;;2.38;2.13;;;17.60;66.90;;;;;;5075083;28;20170;-62
2021/10/27 02:06:53;;;;;;;2.78;2.25;;;17.60;66.90;;;;;;5075449;28;20177;-61
2021/10/27 02:09:18;;;;;;;2.33;2.03;;;17.60;66.90;;;;;;5075602;28;20174;-61
2021/10/27 02:11:44;;;;;;;2.72;2.13;;;17.60;66.90;;;;;;5074727;28;20171;-61
2021/10/27 02:14:10;;;;;;;2.88;2.40;;;17.60;66.90;;;;;;5075789;28;20212;-61
2021/10/27 02:16:35;;;;;;;2.20;2.00;;;17.50;66.80;;;;;;5075350;28;20178;-62
2021/10/27 02:19:01;;;;;;;2.05;1.95;;;17.60;66.90;;;;;;5074730;28;20167;-62
2021/10/27 02:21:27;;;;;;;2.03;1.80;;;17.60;66.90;;;;;;5075326;28;20586;-62
2021/10/27 02:23:52;;;;;;;2.88;1.80;;;17.50;66.90;;;;;;5075308;28;20197;-62
2021/10/27 02:26:21;;;;;;;1.70;1.60;;;17.60;66.90;;;;;;5074694;28;20205;-63
2021/10/27 02:28:47;;;;;;;1.75;1.65;;;17.50;66.90;;;;;;5075141;28;20245;-62
2021/10/27 02:31:13;;;;;;;1.90;1.80;;;17.50;66.90;;;;;;5075390;28;20686;-62
2021/10/27 02:33:38;;;;;;;2.30;2.13;;;17.60;66.90;;;;;;5074100;28;20175;-63
2021/10/27 02:36:04;;;;;;;2.10;1.90;;;17.50;66.90;;;;;;5075153;28;20166;-62
2021/10/27 02:38:30;;;;;;;2.97;2.15;;;17.50;66.90;;;;;;5075150;28;20224;-61
2021/10/27 02:40:56;;;;;;;3.10;2.03;;;17.50;66.90;;;;;;5074539;28;20218;-63
2021/10/27 02:43:21;;;;;;;1.80;1.70;;;17.50;66.90;;;;;;5075032;28;20225;-62
2021/10/27 02:45:47;;;;;;;2.15;1.95;;;17.50;67.00;;;;;;5074910;28;20172;-63
2021/10/27 02:48:13;;;;;;;2.00;1.88;;;17.50;66.90;;;;;;5074352;28;20170;-62
2021/10/27 02:50:39;;;;;;;2.17;1.98;;;17.50;66.90;;;;;;5074949;28;20198;-62
2021/10/27 02:53:05;;;;;;;2.63;1.83;;;17.50;66.90;;;;;;5074347;28;20185;-62
2021/10/27 02:55:30;;;;;;;2.75;1.88;;;17.50;66.90;;;;;;5074462;28;20178;-63
2021/10/27 02:57:57;;;;;;;2.00;1.90;;;17.50;66.90;;;;;;5074960;28;20170;-63
2021/10/27 03:00:23;;;;;;;1.88;1.77;;;17.50;66.90;;;;;;5074036;28;20206;-63
2021/10/27 03:02:49;;;;;;;2.83;1.90;;;17.50;66.90;;;;;;5074517;28;20591;-63
2021/10/27 03:05:14;;;;;;;2.42;2.25;;;17.50;66.90;;;;;;5074710;28;20646;-62
2021/10/27 03:07:40;;;;;;;1.80;1.70;;;17.50;67.00;;;;;;5073103;28;20171;-61
2021/10/27 03:10:06;;;;;;;2.30;2.10;;;17.50;67.00;;;;;;5074703;28;20178;-60
2021/10/27 03:12:31;;;;;;;1.73;1.60;;;17.50;66.90;;;;;;5074297;28;20209;-60
2021/10/27 03:14:57;;;;;;;1.90;1.80;;;17.50;67.00;;;;;;5073707;28;20206;-61
2021/10/27 03:17:22;;;;;;;2.10;2.00;;;17.50;67.00;;;;;;5074331;28;20178;-61
2021/10/27 03:19:48;;;;;;;1.85;1.55;;;17.50;67.00;;;;;;5073902;28;20214;-63
2021/10/27 03:22:13;;;;;;;1.70;1.60;;;17.50;67.00;;;;;;5073807;28;20173;-62
2021/10/27 03:24:39;;;;;;;2.22;1.70;;;17.50;67.00;;;;;;5073876;28;20540;-62
2021/10/27 03:27:04;;;;;;;2.30;1.90;;;17.50;67.00;;;;;;5074259;28;20201;-61
2021/10/27 03:29:30;;;;;;;2.22;1.90;;;17.50;67.00;;;;;;5073191;28;20224;-61
2021/10/27 03:31:55;;;;;;;2.40;1.92;;;17.20;66.80;;;;;;5074179;28;20175;-61
2021/10/27 03:34:21;;;;;;;2.40;2.20;;;17.50;67.00;;;;;;5074071;28;20182;-61
2021/10/27 03:36:49;;;;;;;1.70;1.60;;;17.50;67.00;;;;;;5073135;28;20178;-61
2021/10/27 03:39:15;;;;;;;2.03;1.83;;;17.40;66.90;;;;;;5074059;28;20198;-61
2021/10/27 03:41:41;;;;;;;1.80;1.70;;;17.50;67.00;;;;;;5073572;28;20235;-62
2021/10/27 03:44:07;;;;;;;2.53;2.00;;;17.50;67.00;;;;;;5073074;28;20305;-62
2021/10/27 03:46:32;;;;;;;1.80;1.70;;;17.50;67.00;;;;;;5073407;28;20779;-61
2021/10/27 03:48:58;;;;;;;1.90;1.80;;;17.40;66.90;;;;;;5073694;28;20196;-61
2021/10/27 03:51:24;;;;;;;2.30;1.92;;;17.40;67.00;;;;;;5073312;28;20239;-61
2021/10/27 03:53:52;;;;;;;2.03;1.92;;;17.40;67.00;;;;;;5073513;28;20175;-62
2021/10/27 03:56:19;;;;;;;2.22;1.60;;;17.60;67.10;;;;;;5073467;28;20175;-62
2021/10/27 03:58:45;;;;;;;2.47;2.28;;;17.40;67.00;;;;;;5073287;28;20269;-62
2021/10/27 04:01:10;;;;;;;3.05;2.08;;;17.40;67.00;;;;;;5073345;28;20333;-64
2021/10/27 04:03:36;;;;;;;3.03;1.83;;;17.40;67.00;;;;;;5071526;28;20312;-63
2021/10/27 04:06:02;;;;;;;2.13;2.00;;;17.40;67.00;;;;;;5073668;28;20171;-62
2021/10/27 04:08:33;;;;;;;1.90;1.80;;;17.40;67.00;;;;;;5073368;28;20170;-61
2021/10/27 04:10:58;;;;;;;2.17;1.95;;;17.40;67.00;;;;;;5072741;28;20640;-61
2021/10/27 04:13:24;;;;;;;1.92;1.70;;;17.40;66.90;;;;;;5073238;28;20170;-61
2021/10/27 04:15:50;;;;;;;2.05;1.77;;;17.40;67.80;;;;;;5072846;28;20182;-62
2021/10/27 04:18:15;;;;;;;2.72;2.10;;;17.40;67.00;;;;;;5072908;28;20169;-61
2021/10/27 04:20:41;;;;;;;2.75;2.08;;;17.40;67.00;;;;;;5072931;28;20263;-62
2021/10/27 04:23:10;;;;;;;1.70;1.60;;;17.40;67.00;;;;;;5073062;28;20171;-62
2021/10/27 04:25:35;;;;;;;1.90;1.80;;;17.40;67.00;;;;;;5072148;28;20223;-63
2021/10/27 04:28:01;;;;;;;2.03;1.77;;;17.40;67.00;;;;;;5073239;28;20174;-61
2021/10/27 04:30:26;;;;;;;1.98;1.50;;;17.40;67.00;;;;;;5073197;28;20198;-63
2021/10/27 04:32:52;;;;;;;1.90;1.80;;;17.40;67.00;;;;;;5072323;28;20197;-63
2021/10/27 04:35:18;;;;;;;2.03;1.90;;;17.40;67.00;;;;;;5073260;28;20183;-61
2021/10/27 04:37:45;;;;;;;2.70;2.00;;;17.40;67.00;;;;;;5072908;28;20177;-62
2021/10/27 04:40:12;;;;;;;2.65;1.70;;;17.40;67.00;;;;;;5072319;28;20271;-62
2021/10/27 04:42:37;;;;;;;2.03;1.83;;;17.40;67.00;;;;;;5072506;28;20181;-62
2021/10/27 04:45:04;;;;;;;2.13;2.03;;;17.40;67.00;;;;;;5073062;28;20175;-62
2021/10/27 04:47:30;;;;;;;2.10;1.90;;;17.40;67.00;;;;;;5072033;28;20170;-61
2021/10/27 04:49:55;;;;;;;1.55;1.45;;;17.40;67.00;;;;;;5073100;28;20175;-62
2021/10/27 04:52:21;;;;;;;2.83;2.00;;;17.40;67.00;;;;;;5072875;28;20173;-61
2021/10/27 04:54:46;;;;;;;2.30;1.73;;;17.40;67.00;;;;;;5071816;28;20259;-63
2021/10/27 04:57:11;;;;;;;2.00;1.55;;;17.40;67.00;;;;;;5072840;28;20684;-61
2021/10/27 04:59:41;;;;;;;1.90;1.60;;;17.40;67.00;;;;;;5071631;28;20206;-63
2021/10/27 05:02:06;;;;;;;1.52;1.42;;;17.40;67.00;;;;;;5072996;28;20183;-62
2021/10/27 05:04:32;;;;;;;1.80;1.52;;;17.40;67.10;;;;;;5072358;28;20166;-62
2021/10/27 05:06:58;;;;;;;1.85;1.75;;;17.40;67.10;;;;;;5072128;28;20228;-61
2021/10/27 05:09:23;;;;;;;1.95;1.80;;;17.50;67.10;;;;;;5072765;28;20622;-60
2021/10/27 05:11:49;;;;;;;1.55;1.45;;;17.60;67.10;;;;;;5072321;28;20188;-60
2021/10/27 05:14:17;;;;;;;3.03;2.10;;;17.60;66.90;;;;;;5071842;28;20649;-60
2021/10/27 05:16:43;;;;;;;2.33;1.73;;;17.70;66.70;;;;;;5072539;28;20353;-61
2021/10/27 05:19:08;;;;;;;1.50;1.40;;;17.70;66.60;;;;;;5072736;28;20253;-61
2021/10/27 05:21:34;;;;;;;2.00;1.80;;;17.70;66.50;;;;;;5071650;28;20174;-61
2021/10/27 05:23:59;;;;;;;1.80;1.50;;;17.80;66.50;;;;;;5072345;28;20625;-61
2021/10/27 05:26:25;;;;;;;1.95;1.65;;;17.80;66.40;;;;;;5072056;28;20186;-61
2021/10/27 05:28:50;;;;;;;1.73;1.60;;;17.70;66.40;;;;;;5071523;28;20178;-62
2021/10/27 05:31:16;;;;;;;2.25;2.03;;;17.70;66.40;;;;;;5075977;28;20170;-62
2021/10/27 05:33:41;;;;;;;1.73;1.63;;;17.70;66.40;;;;;;5076688;28;20638;-61
2021/10/27 05:36:07;;;;;;;1.85;1.40;;;17.80;66.50;;;;;;5075815;28;20189;-62
2021/10/27 05:38:32;;;;;;;1.40;1.30;;;17.80;66.40;;;;;;5076074;28;20273;-61
2021/10/27 05:40:58;;;;;;;1.90;1.33;;;17.80;66.30;;;;;;5076216;28;20214;-62
2021/10/27 05:43:25;;;;;;;1.42;1.33;;;17.80;66.20;;;;;;5075366;28;20667;-62
2021/10/27 05:45:53;;;;;;;1.70;1.60;;;17.90;66.30;;;;;;5076183;28;20543;-61
2021/10/27 05:48:19;;;;;;;2.28;1.75;;;17.80;66.20;;;;;;5076289;28;20588;-61
2021/10/27 05:50:59;;;;;;;1.55;1.45;;;17.80;66.20;;;;;;5075130;28;20656;-61
2021/10/27 05:56:09;;;;;;;1.63;1.52;;;17.80;66.30;;;;;;5075454;28;20185;-62
2021/10/27 05:58:35;;;;;;;1.80;1.50;;;17.80;66.40;;;;;;5075791;28;20167;-62
2021/10/27 06:01:00;;;;;;;1.77;1.50;;;17.80;66.40;;;;;;5075751;28;20220;-63
2021/10/27 06:03:26;;;;;;;1.83;1.50;;;17.80;66.40;;;;;;5075289;28;20195;-63
2021/10/27 06:05:51;;;;;;;1.50;1.40;;;17.90;66.40;;;;;;5075556;28;20174;-61
2021/10/27 06:08:17;;;;;;;1.42;1.33;;;17.90;66.20;;;;;;5075785;28;20170;-61
2021/10/27 06:10:43;;;;;;;1.67;1.50;;;17.90;66.20;;;;;;5074680;28;20523;-60
2021/10/27 06:13:12;;;;;;;1.55;1.45;;;17.90;66.20;;;;;;5075906;28;20261;-61
2021/10/27 06:15:40;;;;;;;1.92;1.60;;;17.90;66.20;;;;;;5075571;28;20174;-61
2021/10/27 06:18:06;;;;;;;1.58;1.48;;;17.80;66.10;;;;;;5075291;28;20181;-61
2021/10/27 06:20:32;;;;;;;1.25;1.15;;;17.80;66.20;;;;;;5075210;28;20202;-62
2021/10/27 06:22:57;;;;;;;1.70;1.52;;;17.80;66.20;;;;;;5075503;28;20174;-61
2021/10/27 06:25:24;;;;;;;1.70;1.60;;;17.80;66.30;;;;;;5074956;28;20542;-63
2021/10/27 06:27:57;;;;;;;1.20;1.20;;;17.80;66.30;;;;;;5075394;28;20171;-62
2021/10/27 06:30:43;;;;;;;2.25;1.70;;;17.80;66.30;;;;;;5075594;28;20197;-62
2021/10/27 06:35:58;;;;;;;1.30;1.20;;;17.80;66.30;;;;;;5075068;28;20580;-62
2021/10/27 06:46:38;;;;;;;1.90;1.80;;;17.70;66.40;;;;;;5074244;28;20184;-62
2021/10/27 06:49:03;;;;;;;1.50;1.40;;;17.70;66.40;;;;;;5075027;28;20530;-64
2021/10/27 06:51:29;;;;;;;1.60;1.50;;;17.70;66.40;;;;;;5074485;28;20227;-63
2021/10/27 06:53:55;;;;;;;1.83;1.70;;;17.70;66.60;;;;;;5074192;28;20257;-66
2021/10/27 06:56:22;;;;;;;3.00;1.92;;;17.70;66.70;;;;;;5074796;28;20174;-63
2021/10/27 07:17:37;;;;;;;5.90;2.15;;;17.60;67.60;;;;;;5074374;28;20272;-62
2021/10/27 07:20:05;;;;;;;4.53;2.53;;;17.60;68.20;;;;;;5074390;28;20680;-63
2021/10/27 07:22:30;;;;;;;2.70;2.20;;;17.70;68.10;;;;;;5073497;28;20178;-62
2021/10/27 07:24:57;;;;;;;3.42;1.80;;;17.60;68.00;;;;;;5074211;28;20182;-62
2021/10/27 07:27:23;;;;;;;2.47;2.10;;;17.70;68.30;;;;;;5073481;28;20174;-62
2021/10/27 07:29:49;;;;;;;3.85;2.05;;;17.70;68.30;;;;;;5074016;28;20277;-62
2021/10/27 07:32:15;;;;;;;5.78;2.60;;;17.80;68.40;;;;;;5074178;28;20167;-61
2021/10/27 07:34:45;;;;;;;4.10;2.40;;;17.70;68.30;;;;;;5073188;28;20186;-62
2021/10/27 07:42:20;;;;;;;4.95;2.05;;;17.70;68.30;;;;;;5072940;28;20617;-64
2021/10/27 07:44:46;;;;;;;4.40;2.25;;;17.70;68.50;;;;;;5073748;28;20186;-63
2021/10/27 07:47:12;;;;;;;6.53;2.40;;;17.70;68.30;;;;;;5073944;28;20166;-63
2021/10/27 07:49:38;;;;;;;5.82;1.90;;;17.70;68.60;;;;;;5072730;28;20190;-64
2021/10/27 07:52:10;;;;;;;5.32;1.92;;;17.70;68.50;;;;;;5073680;28;20536;-63
2021/10/27 07:54:35;;;;;;;3.75;1.90;;;17.70;68.40;;;;;;5073038;28;20681;-64
2021/10/27 07:57:01;;;;;;;3.85;2.47;;;17.70;68.40;;;;;;5073045;28;20316;-64
2021/10/27 07:59:26;;;;;;;5.20;1.88;;;17.70;68.30;;;;;;5073562;28;20255;-63
2021/10/27 08:01:52;;;;;;;4.18;1.90;;;17.70;68.30;;;;;;5073251;28;20660;-63
2021/10/27 08:04:17;;;;;;;3.88;2.10;;;17.70;68.30;;;;;;5072906;28;20173;-62
2021/10/27 08:06:46;;;;;;;3.35;1.95;;;17.70;68.10;;;;;;5073214;28;20170;-62
2021/10/27 08:09:13;;;;;;;2.85;1.90;;;17.70;68.10;;;;;;5073340;28;20174;-63
2021/10/27 08:11:39;;;;;;;5.55;1.92;;;17.80;68.00;;;;;;5072585;28;20181;-62
2021/10/27 08:14:04;;;;;;;2.85;1.77;;;17.80;68.00;;;;;;5073418;28;20167;-62
2021/10/27 08:16:30;;;;;;;5.07;1.85;;;17.80;68.00;;;;;;5073012;28;20197;-63
2021/10/27 08:18:56;;;;;;;6.53;2.17;;;17.80;67.90;;;;;;5072558;28;20178;-63
2021/10/27 08:21:21;;;;;;;3.30;1.90;;;17.80;67.90;;;;;;5073202;28;20236;-62
2021/10/27 08:23:48;;;;;;;4.85;1.80;;;17.90;68.00;;;;;;5072111;28;20182;-62
2021/10/27 08:26:18;;;;;;;4.75;2.40;;;17.90;67.90;;;;;;5073387;28;20209;-61
2021/10/27 08:28:52;;;;;;;3.22;1.98;;;17.90;67.90;;;;;;5073160;28;20174;-67
2021/10/27 08:31:31;;;;;;;3.38;1.70;;;18.00;67.80;;;;;;5072453;28;20182;-68
2021/10/27 08:36:25;;;;;;;7.72;1.95;;;17.90;67.80;;;;;;5072966;28;20589;-68
2021/10/27 08:38:52;;;;;;;3.05;1.80;;;17.90;67.90;;;;;;5071910;28;20663;-68
2021/10/27 08:41:17;;;;;;;4.85;2.35;;;17.90;68.10;;;;;;5073044;28;20340;-65
2021/10/27 08:43:43;;;;;;;3.67;2.05;;;17.90;69.00;;;;;;5072331;28;20255;-64
2021/10/27 08:46:09;;;;;;;3.85;2.22;;;17.90;68.20;;;;;;5072500;28;20186;-64
2021/10/27 08:48:38;;;;;;;2.63;2.00;;;17.90;68.30;;;;;;5072638;28;20182;-64
2021/10/27 08:51:05;;;;;;;3.65;1.95;;;17.90;68.30;;;;;;5072996;28;20305;-64
2021/10/27 08:53:31;;;;;;;5.38;2.08;;;17.90;68.20;;;;;;5071835;28;20166;-65
2021/10/27 08:56:01;;;;;;;4.53;2.05;;;17.90;68.30;;;;;;5072969;28;20537;-63
2021/10/27 08:58:40;;;;;;;5.07;1.92;;;17.90;68.40;;;;;;5072943;28;20178;-63
2021/10/27 09:10:04;;;;;;;3.92;2.45;;;17.90;68.20;;;;;;5043404;28;20265;-63
2021/10/27 09:47:02;;;;;;;1.80;1.70;;;18.20;67.50;;;;;;5072113;28;20174;-64
2021/10/27 10:05:47;;;;;;;4.15;2.20;;;18.50;67.00;;;;;;5056551;28;20251;-65
2021/10/27 10:08:15;;;;;;;3.88;1.90;;;18.60;67.00;;;;;;5072392;28;20219;-64
2021/10/27 10:10:41;;;;;;;3.15;1.67;;;18.50;67.10;;;;;;5071234;28;20178;-67
2021/10/27 10:13:07;;;;;;;2.40;2.03;;;18.50;67.50;;;;;;5070992;28;20570;-68
2021/10/27 10:15:38;;;;;;;4.35;2.33;;;18.60;67.50;;;;;;5071938;28;20637;-64
2021/10/27 10:18:03;;;;;;;4.35;2.10;;;18.60;67.30;;;;;;5074824;28;20249;-66
2021/10/27 10:20:29;;;;;;;3.85;1.85;;;18.60;67.20;;;;;;5073781;28;20637;-67
2021/10/27 10:22:54;;;;;;;2.85;2.05;;;18.70;67.30;;;;;;5075616;28;20712;-67
2021/10/27 10:25:21;;;;;;;4.32;2.10;;;18.60;67.30;;;;;;5074980;28;20171;-66
2021/10/27 10:27:46;;;;;;;3.50;1.70;;;18.70;67.40;;;;;;5075329;28;20182;-61
2021/10/27 10:30:40;;;;;;;4.40;2.00;;;18.60;67.50;;;;;;5074800;28;20655;-60
2021/10/27 10:33:09;;;;;;;4.78;1.92;;;18.60;67.70;;;;;;5075290;28;20599;-62
2021/10/27 10:35:49;;;;;;;3.95;2.35;;;18.60;67.70;;;;;;5075166;28;20182;-62
2021/10/27 10:44:35;;;;;;;6.18;2.38;;;18.60;67.90;;;;;;5074076;28;20260;-61
2021/10/27 10:58:52;;;;;;;4.50;1.88;;;18.50;68.40;;;;;;5074363;28;20170;-60
2021/10/27 11:01:46;;;;;;;4.47;2.30;;;18.50;68.50;;;;;;5074809;28;20210;-65
2021/10/27 11:26:35;;;;;;;2.85;2.03;;;18.40;68.30;;;;;;5074502;28;20182;-63
2021/10/27 11:40:44;;;;;;;3.38;2.20;;;18.20;68.50;;;;;;5073798;28;20206;-65
2021/10/27 11:45:53;;;;;;;3.53;1.92;;;18.20;68.50;;;;;;5073572;28;20166;-66
2021/10/27 11:48:54;;;;;;;3.25;1.98;;;18.20;68.50;;;;;;5073509;28;20178;-65
2021/10/27 11:51:18;;;;;;;1.98;1.80;;;18.10;68.30;;;;;;5073546;28;20201;-65
2021/10/27 11:53:45;;;;;;;4.68;1.98;;;18.10;68.30;;;;;;5073262;28;20273;-65
2021/10/27 11:56:15;;;;;;;7.53;2.38;;;18.20;68.30;;;;;;5072772;28;20174;-65
2021/10/27 11:58:45;;;;;;;3.42;1.85;;;18.20;68.30;;;;;;5073421;28;20177;-65
2021/10/27 12:01:33;;;;;;;5.60;2.22;;;18.20;68.30;;;;;;5073484;28;20218;-66
2021/10/27 12:04:03;;;;;;;2.17;1.70;;;18.10;68.30;;;;;;5072676;28;20667;-66
2021/10/27 12:09:11;;;;;;;3.45;1.55;;;18.20;68.30;;;;;;5073080;28;20995;-65
2021/10/27 12:19:25;;;;;;;2.75;1.88;;;18.20;68.10;;;;;;5072947;28;20647;-64
2021/10/27 12:22:03;;;;;;;2.53;1.65;;;18.20;68.10;;;;;;5072486;28;20225;-65
2021/10/27 12:24:30;;;;;;;7.07;2.05;;;18.20;68.10;;;;;;5072364;28;20174;-63
2021/10/27 12:27:08;;;;;;;2.05;1.85;;;18.20;68.00;;;;;;5073152;28;20182;-64
2021/10/27 12:29:35;;;;;;;2.67;2.10;;;18.20;67.90;;;;;;5072634;28;20170;-64
2021/10/27 12:32:22;;;;;;;3.70;1.92;;;18.20;67.90;;;;;;5072161;28;20664;-65
2021/10/27 12:34:49;;;;;;;2.22;1.60;;;18.20;67.80;;;;;;5072743;28;20174;-66
2021/10/27 12:37:38;;;;;;;2.55;2.00;;;18.30;67.70;;;;;;5072264;28;20186;-66
2021/10/27 12:40:27;;;;;;;2.85;2.00;;;18.20;67.60;;;;;;5071863;28;20669;-66
2021/10/27 12:43:14;;;;;;;2.08;1.80;;;18.30;67.70;;;;;;5072508;28;20225;-66
2021/10/27 12:45:43;;;;;;;2.03;1.83;;;18.20;67.70;;;;;;5071967;28;20522;-66
2021/10/27 12:48:16;;;;;;;1.98;1.80;;;18.20;67.70;;;;;;5072677;28;20564;-66
2021/10/27 12:50:55;;;;;;;2.08;1.90;;;18.20;67.70;;;;;;5072475;28;20641;-66
2021/10/27 12:53:43;;;;;;;1.88;1.73;;;18.20;67.80;;;;;;5072986;28;20174;-62
2021/10/27 12:56:10;;;;;;;2.55;1.80;;;18.30;67.80;;;;;;5072927;28;20201;-65
2021/10/27 12:58:41;;;;;;;2.03;1.80;;;18.20;67.60;;;;;;5071624;28;20515;-64
2021/10/27 13:01:17;;;;;;;2.00;1.70;;;18.20;67.60;;;;;;5072806;28;20293;-65
2021/10/27 13:11:42;;;;;;;1.80;1.70;;;18.30;67.60;;;;;;5072718;28;20166;-64
2021/10/27 13:30:06;;;;;;;2.72;1.70;;;18.20;67.70;;;;;;5072262;28;20181;-65
2021/10/27 13:32:32;;;;;;;1.83;1.60;;;18.30;67.70;;;;;;5072203;28;20178;-65
2021/10/27 13:34:58;;;;;;;1.90;1.40;;;18.40;67.40;;;;;;5071636;28;20171;-65
2021/10/27 13:37:27;;;;;;;2.20;1.90;;;18.40;67.20;;;;;;5072487;28;20201;-65
2021/10/27 13:39:53;;;;;;;2.08;1.52;;;18.40;67.10;;;;;;5072018;28;20222;-65
2021/10/27 13:42:37;;;;;;;2.45;1.85;;;18.50;67.10;;;;;;5071787;28;20314;-64
2021/10/27 13:45:17;;;;;;;1.73;1.63;;;18.50;67.00;;;;;;5072421;28;20585;-65
2021/10/27 14:06:51;;;;;;;3.72;1.75;;;18.60;66.50;;;;;;5075390;28;20181;-65
2021/10/27 14:14:44;;;;;;;2.28;1.60;;;18.60;66.60;;;;;;5075644;28;20166;-63
2021/10/27 14:39:09;;;;;;;1.90;1.80;;;18.60;66.70;;;;;;5075246;28;20181;-65
2021/10/27 14:39:35;;;;;;;2.83;1.75;;;18.50;66.90;;;;;;5074970;28;20649;-65
2021/10/27 15:20:22;;;;;;;1.67;1.55;;;18.20;67.50;;;;;;5061615;28;20286;-63
2021/10/27 15:31:00;;;;;;;3.83;1.92;;;18.10;67.60;;;;;;5060706;28;20217;-63
2021/10/27 15:36:25;;;;;;;1.90;1.70;;;18.10;67.50;;;;;;5063143;28;20162;-64
2021/10/27 15:41:49;;;;;;;1.80;1.70;;;18.10;67.60;;;;;;5061447;28;20562;-64
2021/10/27 15:52:13;;;;;;;3.05;1.90;;;18.10;67.80;;;;;;5061284;28;20190;-64
2021/10/27 15:54:41;;;;;;;1.73;1.60;;;18.10;67.90;;;;;;5062820;28;20170;-65
2021/10/27 15:57:10;;;;;;;1.92;1.67;;;18.00;67.80;;;;;;5045014;28;20648;-65
2021/10/27 15:59:37;;;;;;;2.33;2.13;;;18.00;67.90;;;;;;5063962;28;20249;-64
2021/10/27 16:02:03;;;;;;;1.90;1.80;;;18.00;67.90;;;;;;5061016;28;20202;-64
2021/10/27 16:04:29;;;;;;;1.55;1.45;;;18.00;68.00;;;;;;5055647;28;20182;-66
2021/10/27 16:06:55;;;;;;;5.25;1.98;;;18.00;68.00;;;;;;5053774;28;20183;-66
2021/10/27 16:09:29;;;;;;;2.05;1.85;;;18.00;67.90;;;;;;5052836;28;20176;-66
2021/10/27 16:11:55;;;;;;;2.58;1.90;;;18.00;67.90;;;;;;5053442;28;20705;-64
2021/10/27 16:14:23;;;;;;;2.28;2.08;;;18.00;68.00;;;;;;5052359;28;20266;-65
2021/10/27 16:16:48;;;;;;;2.83;1.80;;;18.00;68.10;;;;;;5052229;28;20667;-65
2021/10/27 16:19:15;;;;;;;2.85;1.80;;;17.90;68.20;;;;;;5053273;28;20172;-60
2021/10/27 16:21:40;;;;;;;3.92;2.30;;;17.90;68.20;;;;;;5053097;28;20213;-60
2021/10/27 16:24:06;;;;;;;4.10;1.70;;;17.90;68.20;;;;;;5052346;28;20180;-61
2021/10/27 16:26:32;;;;;;;3.88;2.03;;;17.90;68.30;;;;;;5052846;28;20190;-61
2021/10/27 16:28:57;;;;;;;2.97;2.08;;;18.00;68.40;;;;;;5052303;28;20178;-60
2021/10/27 16:31:23;;;;;;;3.53;2.38;;;18.00;68.30;;;;;;5053285;28;20187;-60
2021/10/27 16:33:48;;;;;;;2.85;1.98;;;18.10;68.50;;;;;;5052732;28;20619;-60
2021/10/27 16:36:14;;;;;;;7.63;2.30;;;18.10;68.30;;;;;;5052398;28;20163;-63
2021/10/27 16:38:40;;;;;;;3.00;2.00;;;18.30;68.50;;;;;;5052543;28;20185;-63
2021/10/27 16:41:06;;;;;;;3.55;2.15;;;18.50;68.20;;;;;;5052708;28;20626;-64
2021/10/27 16:43:32;;;;;;;2.45;1.95;;;18.70;67.70;;;;;;5051682;28;20215;-63
2021/10/27 16:45:57;;;;;;;2.53;1.70;;;18.90;67.10;;;;;;5052675;28;20240;-64
2021/10/27 16:48:26;;;;;;;1.83;1.52;;;19.20;66.50;;;;;;5052807;28;20167;-63
2021/10/27 16:50:52;;;;;;;4.43;2.13;;;19.40;65.60;;;;;;5051766;28;20171;-68
2021/10/27 16:53:21;;;;;;;4.28;1.90;;;19.60;65.10;;;;;;5057457;28;20186;-64
2021/10/27 16:55:47;;;;;;;3.20;1.88;;;19.80;64.40;;;;;;5072516;28;20205;-64
2021/10/27 16:58:14;;;;;;;4.88;2.50;;;20.00;63.80;;;;;;5071940;28;20511;-65
2021/10/27 17:00:39;;;;;;;3.60;2.20;;;20.10;63.20;;;;;;5072098;28;20206;-65
2021/10/27 17:03:05;;;;;;;2.95;2.30;;;20.20;63.00;;;;;;5072544;28;20568;-64
2021/10/27 17:05:30;;;;;;;5.43;2.40;;;20.30;63.00;;;;;;5071356;28;20656;-66
2021/10/27 17:07:56;;;;;;;3.03;2.05;;;20.20;63.30;;;;;;5072897;28;20228;-67
2021/10/27 17:10:21;;;;;;;3.22;2.13;;;20.30;63.00;;;;;;5071533;28;20224;-66
2021/10/27 17:12:47;;;;;;;5.00;2.20;;;20.30;62.80;;;;;;5071491;28;20166;-66
2021/10/27 17:15:13;;;;;;;4.40;2.10;;;20.30;62.70;;;;;;5072732;28;20664;-65
2021/10/27 17:17:41;;;;;;;5.15;2.92;;;20.30;62.60;;;;;;5072583;28;20625;-65
2021/10/27 17:20:06;;;;;;;6.22;3.00;;;20.20;62.70;;;;;;5071673;28;20569;-65
2021/10/27 17:22:37;;;;;;;5.93;2.53;;;20.10;62.80;;;;;;5072293;28;20171;-65
2021/10/27 17:25:03;;;;;;;4.22;2.80;;;20.00;63.20;;;;;;5072574;28;20191;-65
2021/10/27 17:27:29;;;;;;;5.00;2.40;;;19.90;63.30;;;;;;5074637;28;20177;-66
2021/10/27 17:29:55;;;;;;;5.53;2.47;;;19.80;63.70;;;;;;5076763;28;20256;-67
2021/10/27 17:32:21;;;;;;;5.00;2.45;;;19.60;64.10;;;;;;5075969;28;20209;-66
2021/10/27 17:34:46;;;;;;;3.70;2.50;;;19.50;64.40;;;;;;5076312;28;20269;-67
2021/10/27 17:37:13;;;;;;;5.30;2.47;;;19.50;64.70;;;;;;5076691;28;20633;-67
2021/10/27 17:39:41;;;;;;;4.68;2.63;;;19.40;65.00;;;;;;5075309;28;20174;-66
2021/10/27 17:42:08;;;;;;;4.22;2.50;;;19.30;65.00;;;;;;5076367;28;20178;-66